sensor_id;sensor_type;location;lat;lon;timestamp;P1;durP1;ratioP1;P2;durP2;ratioP2
75698;SDS011;64313;51.018;13.742;2023-02-23T00:01:22;13.15;;;6.65;;
75698;SDS011;64313;51.018;13.742;2023-02-23T00:03:49;12.65;;;6.38;;
75698;SDS011;64313;51.018;13.742;2023-02-23T00:06:16;12.77;;;6.47;;
75698;SDS011;64313;51.018;13.742;2023-02-23T00:08:42;13.27;;;6.40;;
75698;SDS011;64313;51.018;13.742;2023-02-23T00:11:09;12.40;;;6.15;;
75698;SDS011;64313;51.018;13.742;2023-02-23T00:13:38;13.30;;;6.50;;
75698;SDS011;64313;51.018;13.742;2023-02-23T00:16:06;11.63;;;6.13;;
75698;SDS011;64313;51.018;13.742;2023-02-23T00:18:33;11.90;;;6.18;;
75698;SDS011;64313;51.018;13.742;2023-02-23T00:21:09;12.50;;;7.13;;
75698;SDS011;64313;51.018;13.742;2023-02-23T00:23:39;11.77;;;6.88;;
75698;SDS011;64313;51.018;13.742;2023-02-23T00:26:05;13.02;;;7.18;;
75698;SDS011;64313;51.018;13.742;2023-02-23T00:28:30;11.38;;;6.25;;
75698;SDS011;64313;51.018;13.742;2023-02-23T00:30:56;13.93;;;6.63;;
75698;SDS011;64313;51.018;13.742;2023-02-23T00:35:46;13.13;;;5.93;;
75698;SDS011;64313;51.018;13.742;2023-02-23T00:38:12;12.98;;;6.82;;
75698;SDS011;64313;51.018;13.742;2023-02-23T00:40:38;12.65;;;6.28;;
75698;SDS011;64313;51.018;13.742;2023-02-23T00:43:05;11.85;;;6.57;;
75698;SDS011;64313;51.018;13.742;2023-02-23T00:45:31;11.85;;;6.50;;
75698;SDS011;64313;51.018;13.742;2023-02-23T00:47:56;12.32;;;6.47;;
75698;SDS011;64313;51.018;13.742;2023-02-23T00:50:21;12.48;;;6.72;;
75698;SDS011;64313;51.018;13.742;2023-02-23T00:52:47;12.70;;;6.68;;
75698;SDS011;64313;51.018;13.742;2023-02-23T00:55:13;12.68;;;6.45;;
75698;SDS011;64313;51.018;13.742;2023-02-23T00:57:39;13.38;;;6.80;;
75698;SDS011;64313;51.018;13.742;2023-02-23T01:00:05;13.20;;;6.75;;
75698;SDS011;64313;51.018;13.742;2023-02-23T01:02:40;12.43;;;6.68;;
75698;SDS011;64313;51.018;13.742;2023-02-23T01:05:08;12.68;;;6.68;;
75698;SDS011;64313;51.018;13.742;2023-02-23T01:07:35;11.95;;;6.15;;
75698;SDS011;64313;51.018;13.742;2023-02-23T01:10:00;12.40;;;6.75;;
75698;SDS011;64313;51.018;13.742;2023-02-23T01:14:51;10.93;;;6.40;;
75698;SDS011;64313;51.018;13.742;2023-02-23T01:17:16;10.98;;;6.22;;
75698;SDS011;64313;51.018;13.742;2023-02-23T01:22:07;11.75;;;6.55;;
75698;SDS011;64313;51.018;13.742;2023-02-23T01:27:02;13.60;;;6.60;;
75698;SDS011;64313;51.018;13.742;2023-02-23T01:31:52;11.98;;;6.40;;
75698;SDS011;64313;51.018;13.742;2023-02-23T01:36:45;13.32;;;6.55;;
75698;SDS011;64313;51.018;13.742;2023-02-23T01:41:39;12.65;;;6.72;;
75698;SDS011;64313;51.018;13.742;2023-02-23T01:46:56;13.80;;;7.15;;
75698;SDS011;64313;51.018;13.742;2023-02-23T01:49:23;12.18;;;6.35;;
75698;SDS011;64313;51.018;13.742;2023-02-23T01:54:38;14.25;;;7.22;;
75698;SDS011;64313;51.018;13.742;2023-02-23T01:57:09;12.40;;;6.78;;
75698;SDS011;64313;51.018;13.742;2023-02-23T01:59:43;13.70;;;6.93;;
75698;SDS011;64313;51.018;13.742;2023-02-23T02:02:11;10.93;;;6.38;;
75698;SDS011;64313;51.018;13.742;2023-02-23T02:04:38;13.68;;;6.97;;
75698;SDS011;64313;51.018;13.742;2023-02-23T02:07:21;12.27;;;6.68;;
75698;SDS011;64313;51.018;13.742;2023-02-23T02:09:51;14.00;;;7.30;;
75698;SDS011;64313;51.018;13.742;2023-02-23T02:12:41;13.35;;;7.53;;
75698;SDS011;64313;51.018;13.742;2023-02-23T02:15:09;14.60;;;7.78;;
75698;SDS011;64313;51.018;13.742;2023-02-23T02:18:00;13.27;;;6.85;;
75698;SDS011;64313;51.018;13.742;2023-02-23T02:20:43;13.60;;;6.90;;
75698;SDS011;64313;51.018;13.742;2023-02-23T02:31:59;14.98;;;7.55;;
75698;SDS011;64313;51.018;13.742;2023-02-23T02:40:45;14.90;;;7.40;;
75698;SDS011;64313;51.018;13.742;2023-02-23T02:43:36;12.85;;;7.05;;
75698;SDS011;64313;51.018;13.742;2023-02-23T02:46:20;12.70;;;6.57;;
75698;SDS011;64313;51.018;13.742;2023-02-23T02:49:02;13.50;;;6.82;;
75698;SDS011;64313;51.018;13.742;2023-02-23T02:51:32;14.60;;;7.72;;
75698;SDS011;64313;51.018;13.742;2023-02-23T02:54:09;15.15;;;6.80;;
75698;SDS011;64313;51.018;13.742;2023-02-23T02:56:47;12.75;;;7.38;;
75698;SDS011;64313;51.018;13.742;2023-02-23T02:59:17;12.05;;;6.60;;
75698;SDS011;64313;51.018;13.742;2023-02-23T03:02:03;12.63;;;6.70;;
75698;SDS011;64313;51.018;13.742;2023-02-23T03:04:47;14.65;;;6.97;;
75698;SDS011;64313;51.018;13.742;2023-02-23T03:10:46;13.90;;;7.03;;
75698;SDS011;64313;51.018;13.742;2023-02-23T03:13:43;13.18;;;7.00;;
75698;SDS011;64313;51.018;13.742;2023-02-23T03:17:37;13.85;;;7.55;;
75698;SDS011;64313;51.018;13.742;2023-02-23T03:20:02;13.75;;;7.00;;
75698;SDS011;64313;51.018;13.742;2023-02-23T03:22:59;13.15;;;6.95;;
75698;SDS011;64313;51.018;13.742;2023-02-23T03:26:10;12.65;;;6.63;;
75698;SDS011;64313;51.018;13.742;2023-02-23T03:29:08;15.05;;;6.95;;
75698;SDS011;64313;51.018;13.742;2023-02-23T03:35:13;14.10;;;6.95;;
75698;SDS011;64313;51.018;13.742;2023-02-23T03:38:15;13.07;;;6.93;;
75698;SDS011;64313;51.018;13.742;2023-02-23T03:41:05;13.40;;;7.18;;
75698;SDS011;64313;51.018;13.742;2023-02-23T03:43:52;15.38;;;7.63;;
75698;SDS011;64313;51.018;13.742;2023-02-23T03:46:40;13.48;;;7.15;;
75698;SDS011;64313;51.018;13.742;2023-02-23T03:49:27;14.70;;;6.53;;
75698;SDS011;64313;51.018;13.742;2023-02-23T03:52:19;14.88;;;7.20;;
75698;SDS011;64313;51.018;13.742;2023-02-23T03:55:12;15.75;;;7.53;;
75698;SDS011;64313;51.018;13.742;2023-02-23T03:58:00;12.20;;;6.88;;
75698;SDS011;64313;51.018;13.742;2023-02-23T04:00:48;13.82;;;7.43;;
75698;SDS011;64313;51.018;13.742;2023-02-23T04:03:36;14.30;;;7.32;;
75698;SDS011;64313;51.018;13.742;2023-02-23T04:06:26;12.82;;;7.07;;
75698;SDS011;64313;51.018;13.742;2023-02-23T04:09:15;13.75;;;7.57;;
75698;SDS011;64313;51.018;13.742;2023-02-23T04:12:16;12.95;;;6.97;;
75698;SDS011;64313;51.018;13.742;2023-02-23T04:18:05;13.82;;;6.32;;
75698;SDS011;64313;51.018;13.742;2023-02-23T04:20:32;13.23;;;6.65;;
75698;SDS011;64313;51.018;13.742;2023-02-23T04:25:22;13.43;;;7.10;;
75698;SDS011;64313;51.018;13.742;2023-02-23T04:30:15;12.30;;;6.43;;
75698;SDS011;64313;51.018;13.742;2023-02-23T04:32:42;13.10;;;6.90;;
75698;SDS011;64313;51.018;13.742;2023-02-23T04:35:10;13.57;;;6.95;;
75698;SDS011;64313;51.018;13.742;2023-02-23T04:37:37;13.07;;;6.93;;
75698;SDS011;64313;51.018;13.742;2023-02-23T04:40:02;15.27;;;7.35;;
75698;SDS011;64313;51.018;13.742;2023-02-23T04:42:29;13.77;;;7.22;;
75698;SDS011;64313;51.018;13.742;2023-02-23T04:47:19;14.87;;;7.13;;
75698;SDS011;64313;51.018;13.742;2023-02-23T04:49:45;13.73;;;7.35;;
75698;SDS011;64313;51.018;13.742;2023-02-23T04:54:37;13.63;;;7.13;;
75698;SDS011;64313;51.018;13.742;2023-02-23T04:57:03;12.32;;;6.50;;
75698;SDS011;64313;51.018;13.742;2023-02-23T04:59:29;12.93;;;6.57;;
75698;SDS011;64313;51.018;13.742;2023-02-23T05:01:55;13.02;;;6.70;;
75698;SDS011;64313;51.018;13.742;2023-02-23T05:06:46;15.18;;;7.57;;
75698;SDS011;64313;51.018;13.742;2023-02-23T05:11:37;14.10;;;7.20;;
75698;SDS011;64313;51.018;13.742;2023-02-23T05:16:28;12.50;;;7.18;;
75698;SDS011;64313;51.018;13.742;2023-02-23T05:21:19;13.23;;;7.27;;
75698;SDS011;64313;51.018;13.742;2023-02-23T05:23:44;14.00;;;7.07;;
75698;SDS011;64313;51.018;13.742;2023-02-23T05:28:37;14.15;;;7.40;;
75698;SDS011;64313;51.018;13.742;2023-02-23T05:31:03;15.98;;;8.32;;
75698;SDS011;64313;51.018;13.742;2023-02-23T05:33:33;17.13;;;8.82;;
75698;SDS011;64313;51.018;13.742;2023-02-23T05:36:06;18.05;;;9.70;;
75698;SDS011;64313;51.018;13.742;2023-02-23T05:38:33;16.20;;;9.32;;
75698;SDS011;64313;51.018;13.742;2023-02-23T05:43:28;17.40;;;8.98;;
75698;SDS011;64313;51.018;13.742;2023-02-23T05:48:19;17.53;;;8.50;;
75698;SDS011;64313;51.018;13.742;2023-02-23T05:50:45;14.88;;;8.77;;
75698;SDS011;64313;51.018;13.742;2023-02-23T05:53:11;15.68;;;8.32;;
75698;SDS011;64313;51.018;13.742;2023-02-23T05:58:01;16.70;;;8.83;;
75698;SDS011;64313;51.018;13.742;2023-02-23T06:00:27;15.77;;;8.43;;
75698;SDS011;64313;51.018;13.742;2023-02-23T06:02:52;16.45;;;8.23;;
75698;SDS011;64313;51.018;13.742;2023-02-23T06:07:43;15.67;;;8.27;;
75698;SDS011;64313;51.018;13.742;2023-02-23T06:10:08;15.07;;;8.20;;
75698;SDS011;64313;51.018;13.742;2023-02-23T06:12:34;15.43;;;8.07;;
75698;SDS011;64313;51.018;13.742;2023-02-23T06:15:00;16.15;;;8.20;;
75698;SDS011;64313;51.018;13.742;2023-02-23T06:19:51;15.37;;;7.90;;
75698;SDS011;64313;51.018;13.742;2023-02-23T06:24:42;14.70;;;7.85;;
75698;SDS011;64313;51.018;13.742;2023-02-23T06:27:07;18.17;;;8.98;;
75698;SDS011;64313;51.018;13.742;2023-02-23T06:31:58;15.40;;;8.53;;
75698;SDS011;64313;51.018;13.742;2023-02-23T06:34:24;14.98;;;8.63;;
75698;SDS011;64313;51.018;13.742;2023-02-23T06:36:51;15.88;;;8.50;;
75698;SDS011;64313;51.018;13.742;2023-02-23T06:41:41;16.27;;;8.53;;
75698;SDS011;64313;51.018;13.742;2023-02-23T06:46:32;18.15;;;7.95;;
75698;SDS011;64313;51.018;13.742;2023-02-23T06:51:24;13.07;;;7.22;;
75698;SDS011;64313;51.018;13.742;2023-02-23T06:53:50;15.45;;;8.50;;
75698;SDS011;64313;51.018;13.742;2023-02-23T06:56:17;15.52;;;8.20;;
75698;SDS011;64313;51.018;13.742;2023-02-23T06:58:43;15.80;;;8.27;;
75698;SDS011;64313;51.018;13.742;2023-02-23T07:03:34;15.65;;;8.23;;
75698;SDS011;64313;51.018;13.742;2023-02-23T07:05:59;15.30;;;7.95;;
75698;SDS011;64313;51.018;13.742;2023-02-23T07:08:26;14.55;;;8.15;;
75698;SDS011;64313;51.018;13.742;2023-02-23T07:10:52;15.38;;;8.32;;
75698;SDS011;64313;51.018;13.742;2023-02-23T07:13:17;15.20;;;8.07;;
75698;SDS011;64313;51.018;13.742;2023-02-23T07:15:44;17.70;;;8.38;;
75698;SDS011;64313;51.018;13.742;2023-02-23T07:18:09;17.80;;;9.02;;
75698;SDS011;64313;51.018;13.742;2023-02-23T07:20:35;19.17;;;8.98;;
75698;SDS011;64313;51.018;13.742;2023-02-23T07:25:26;16.45;;;8.50;;
75698;SDS011;64313;51.018;13.742;2023-02-23T07:27:52;17.00;;;8.90;;
75698;SDS011;64313;51.018;13.742;2023-02-23T07:32:43;15.68;;;7.72;;
75698;SDS011;64313;51.018;13.742;2023-02-23T07:37:35;16.88;;;8.57;;
75698;SDS011;64313;51.018;13.742;2023-02-23T07:40:01;16.20;;;9.32;;
75698;SDS011;64313;51.018;13.742;2023-02-23T07:42:26;16.55;;;9.10;;
75698;SDS011;64313;51.018;13.742;2023-02-23T07:44:52;17.15;;;8.95;;
75698;SDS011;64313;51.018;13.742;2023-02-23T07:49:42;16.63;;;9.07;;
75698;SDS011;64313;51.018;13.742;2023-02-23T07:54:34;15.98;;;8.55;;
75698;SDS011;64313;51.018;13.742;2023-02-23T07:57:00;16.02;;;9.32;;
75698;SDS011;64313;51.018;13.742;2023-02-23T07:59:25;16.33;;;8.88;;
75698;SDS011;64313;51.018;13.742;2023-02-23T08:01:50;18.17;;;9.60;;
75698;SDS011;64313;51.018;13.742;2023-02-23T08:06:42;16.73;;;8.90;;
75698;SDS011;64313;51.018;13.742;2023-02-23T08:11:32;19.17;;;9.23;;
75698;SDS011;64313;51.018;13.742;2023-02-23T08:16:27;14.60;;;8.23;;
75698;SDS011;64313;51.018;13.742;2023-02-23T08:18:57;17.95;;;9.15;;
75698;SDS011;64313;51.018;13.742;2023-02-23T08:21:23;20.52;;;9.68;;
75698;SDS011;64313;51.018;13.742;2023-02-23T08:23:49;19.52;;;10.25;;
75698;SDS011;64313;51.018;13.742;2023-02-23T08:26:14;17.48;;;9.38;;
75698;SDS011;64313;51.018;13.742;2023-02-23T08:28:40;20.25;;;10.07;;
75698;SDS011;64313;51.018;13.742;2023-02-23T08:31:09;18.85;;;10.70;;
75698;SDS011;64313;51.018;13.742;2023-02-23T08:33:35;20.63;;;10.52;;
75698;SDS011;64313;51.018;13.742;2023-02-23T08:36:01;19.52;;;10.25;;
75698;SDS011;64313;51.018;13.742;2023-02-23T08:38:27;20.48;;;9.77;;
75698;SDS011;64313;51.018;13.742;2023-02-23T08:43:18;16.88;;;9.35;;
75698;SDS011;64313;51.018;13.742;2023-02-23T08:45:47;18.83;;;9.75;;
75698;SDS011;64313;51.018;13.742;2023-02-23T08:48:12;20.38;;;10.50;;
75698;SDS011;64313;51.018;13.742;2023-02-23T08:50:38;18.17;;;9.35;;
75698;SDS011;64313;51.018;13.742;2023-02-23T08:53:03;18.20;;;9.38;;
75698;SDS011;64313;51.018;13.742;2023-02-23T08:55:31;16.80;;;8.88;;
75698;SDS011;64313;51.018;13.742;2023-02-23T08:57:59;16.30;;;8.82;;
75698;SDS011;64313;51.018;13.742;2023-02-23T09:00:25;16.42;;;8.65;;
75698;SDS011;64313;51.018;13.742;2023-02-23T09:02:50;17.20;;;10.13;;
75698;SDS011;64313;51.018;13.742;2023-02-23T09:05:15;17.33;;;10.05;;
75698;SDS011;64313;51.018;13.742;2023-02-23T09:07:41;20.35;;;10.15;;
75698;SDS011;64313;51.018;13.742;2023-02-23T09:10:10;19.98;;;9.95;;
75698;SDS011;64313;51.018;13.742;2023-02-23T09:12:40;18.48;;;9.88;;
75698;SDS011;64313;51.018;13.742;2023-02-23T09:15:05;17.27;;;9.65;;
75698;SDS011;64313;51.018;13.742;2023-02-23T09:17:31;18.50;;;9.20;;
75698;SDS011;64313;51.018;13.742;2023-02-23T09:19:56;16.17;;;9.55;;
75698;SDS011;64313;51.018;13.742;2023-02-23T09:22:22;19.75;;;9.05;;
75698;SDS011;64313;51.018;13.742;2023-02-23T09:24:47;17.88;;;9.55;;
75698;SDS011;64313;51.018;13.742;2023-02-23T09:27:12;15.75;;;9.05;;
75698;SDS011;64313;51.018;13.742;2023-02-23T09:29:38;19.35;;;10.18;;
75698;SDS011;64313;51.018;13.742;2023-02-23T09:32:08;16.20;;;9.30;;
75698;SDS011;64313;51.018;13.742;2023-02-23T09:34:34;17.35;;;8.98;;
75698;SDS011;64313;51.018;13.742;2023-02-23T09:37:00;15.90;;;8.65;;
75698;SDS011;64313;51.018;13.742;2023-02-23T09:39:26;17.10;;;9.05;;
75698;SDS011;64313;51.018;13.742;2023-02-23T09:47:12;16.92;;;9.43;;
75698;SDS011;64313;51.018;13.742;2023-02-23T09:49:48;17.83;;;9.27;;
75698;SDS011;64313;51.018;13.742;2023-02-23T09:52:23;18.65;;;9.05;;
75698;SDS011;64313;51.018;13.742;2023-02-23T09:54:52;16.83;;;9.73;;
75698;SDS011;64313;51.018;13.742;2023-02-23T09:57:18;18.58;;;9.90;;
75698;SDS011;64313;51.018;13.742;2023-02-23T09:59:49;16.63;;;9.93;;
75698;SDS011;64313;51.018;13.742;2023-02-23T10:05:03;16.75;;;8.85;;
75698;SDS011;64313;51.018;13.742;2023-02-23T10:07:48;16.33;;;9.15;;
75698;SDS011;64313;51.018;13.742;2023-02-23T10:10:20;17.58;;;8.88;;
75698;SDS011;64313;51.018;13.742;2023-02-23T10:12:49;17.70;;;9.15;;
75698;SDS011;64313;51.018;13.742;2023-02-23T10:15:26;15.98;;;9.15;;
75698;SDS011;64313;51.018;13.742;2023-02-23T10:18:16;16.55;;;9.15;;
75698;SDS011;64313;51.018;13.742;2023-02-23T10:21:07;17.85;;;9.93;;
75698;SDS011;64313;51.018;13.742;2023-02-23T10:23:51;15.50;;;9.45;;
75698;SDS011;64313;51.018;13.742;2023-02-23T10:26:22;17.23;;;9.55;;
75698;SDS011;64313;51.018;13.742;2023-02-23T10:28:51;16.45;;;9.02;;
75698;SDS011;64313;51.018;13.742;2023-02-23T10:31:28;16.00;;;9.32;;
75698;SDS011;64313;51.018;13.742;2023-02-23T10:33:57;16.58;;;9.07;;
75698;SDS011;64313;51.018;13.742;2023-02-23T10:36:34;17.90;;;9.90;;
75698;SDS011;64313;51.018;13.742;2023-02-23T10:39:03;16.95;;;9.43;;
75698;SDS011;64313;51.018;13.742;2023-02-23T10:41:31;17.08;;;9.52;;
75698;SDS011;64313;51.018;13.742;2023-02-23T10:43:56;16.92;;;9.05;;
75698;SDS011;64313;51.018;13.742;2023-02-23T10:46:24;17.50;;;10.25;;
75698;SDS011;64313;51.018;13.742;2023-02-23T10:48:56;15.38;;;9.00;;
75698;SDS011;64313;51.018;13.742;2023-02-23T10:51:25;16.38;;;8.27;;
75698;SDS011;64313;51.018;13.742;2023-02-23T10:53:55;15.65;;;9.10;;
75698;SDS011;64313;51.018;13.742;2023-02-23T10:56:21;17.08;;;9.38;;
75698;SDS011;64313;51.018;13.742;2023-02-23T10:58:48;15.80;;;8.68;;
75698;SDS011;64313;51.018;13.742;2023-02-23T11:01:31;14.98;;;8.93;;
75698;SDS011;64313;51.018;13.742;2023-02-23T11:04:20;14.50;;;8.00;;
75698;SDS011;64313;51.018;13.742;2023-02-23T11:06:48;13.90;;;7.85;;
75698;SDS011;64313;51.018;13.742;2023-02-23T11:09:24;14.93;;;8.10;;
75698;SDS011;64313;51.018;13.742;2023-02-23T11:12:01;16.10;;;8.07;;
75698;SDS011;64313;51.018;13.742;2023-02-23T11:14:28;17.15;;;8.52;;
75698;SDS011;64313;51.018;13.742;2023-02-23T11:16:55;13.82;;;7.85;;
75698;SDS011;64313;51.018;13.742;2023-02-23T11:19:23;13.70;;;7.63;;
75698;SDS011;64313;51.018;13.742;2023-02-23T11:21:55;14.43;;;7.60;;
75698;SDS011;64313;51.018;13.742;2023-02-23T11:24:23;15.27;;;7.93;;
75698;SDS011;64313;51.018;13.742;2023-02-23T11:26:51;14.57;;;7.65;;
75698;SDS011;64313;51.018;13.742;2023-02-23T11:31:51;13.75;;;8.02;;
75698;SDS011;64313;51.018;13.742;2023-02-23T11:34:21;13.18;;;7.65;;
75698;SDS011;64313;51.018;13.742;2023-02-23T11:37:01;15.70;;;8.02;;
75698;SDS011;64313;51.018;13.742;2023-02-23T11:39:31;15.75;;;7.95;;
75698;SDS011;64313;51.018;13.742;2023-02-23T11:42:09;13.95;;;7.90;;
75698;SDS011;64313;51.018;13.742;2023-02-23T11:44:39;16.00;;;8.38;;
75698;SDS011;64313;51.018;13.742;2023-02-23T11:47:04;14.57;;;7.57;;
75698;SDS011;64313;51.018;13.742;2023-02-23T11:49:37;14.65;;;7.57;;
75698;SDS011;64313;51.018;13.742;2023-02-23T11:52:03;14.77;;;7.57;;
75698;SDS011;64313;51.018;13.742;2023-02-23T11:54:38;13.57;;;7.10;;
75698;SDS011;64313;51.018;13.742;2023-02-23T11:57:18;13.90;;;7.43;;
75698;SDS011;64313;51.018;13.742;2023-02-23T11:59:45;13.13;;;6.90;;
75698;SDS011;64313;51.018;13.742;2023-02-23T12:02:21;12.57;;;7.57;;
75698;SDS011;64313;51.018;13.742;2023-02-23T12:07:38;13.13;;;7.05;;
75698;SDS011;64313;51.018;13.742;2023-02-23T12:10:12;11.95;;;6.70;;
75698;SDS011;64313;51.018;13.742;2023-02-23T12:15:50;11.52;;;6.43;;
75698;SDS011;64313;51.018;13.742;2023-02-23T12:29:30;11.90;;;6.30;;
75698;SDS011;64313;51.018;13.742;2023-02-23T12:32:19;12.32;;;6.43;;
75698;SDS011;64313;51.018;13.742;2023-02-23T12:34:51;11.65;;;6.57;;
75698;SDS011;64313;51.018;13.742;2023-02-23T12:39:53;12.27;;;6.00;;
75698;SDS011;64313;51.018;13.742;2023-02-23T12:42:24;11.32;;;6.22;;
75698;SDS011;64313;51.018;13.742;2023-02-23T12:44:58;12.32;;;6.82;;
75698;SDS011;64313;51.018;13.742;2023-02-23T12:47:33;10.70;;;5.72;;
75698;SDS011;64313;51.018;13.742;2023-02-23T12:50:04;12.48;;;7.05;;
75698;SDS011;64313;51.018;13.742;2023-02-23T12:52:56;11.35;;;6.07;;
75698;SDS011;64313;51.018;13.742;2023-02-23T12:58:47;11.20;;;6.60;;
75698;SDS011;64313;51.018;13.742;2023-02-23T13:01:23;9.82;;;6.25;;
75698;SDS011;64313;51.018;13.742;2023-02-23T13:12:02;12.30;;;6.78;;
75698;SDS011;64313;51.018;13.742;2023-02-23T13:14:52;12.30;;;7.38;;
75698;SDS011;64313;51.018;13.742;2023-02-23T13:23:20;11.75;;;6.40;;
75698;SDS011;64313;51.018;13.742;2023-02-23T13:25:56;13.32;;;7.43;;
75698;SDS011;64313;51.018;13.742;2023-02-23T13:28:48;11.55;;;6.43;;
75698;SDS011;64313;51.018;13.742;2023-02-23T13:31:31;13.32;;;6.57;;
75698;SDS011;64313;51.018;13.742;2023-02-23T13:34:01;12.90;;;7.30;;
75698;SDS011;64313;51.018;13.742;2023-02-23T13:36:30;10.55;;;6.15;;
75698;SDS011;64313;51.018;13.742;2023-02-23T13:39:15;10.73;;;5.78;;
75698;SDS011;64313;51.018;13.742;2023-02-23T13:48:29;12.15;;;6.47;;
75698;SDS011;64313;51.018;13.742;2023-02-23T13:51:19;11.10;;;6.07;;
75698;SDS011;64313;51.018;13.742;2023-02-23T13:56:42;11.70;;;7.05;;
75698;SDS011;64313;51.018;13.742;2023-02-23T13:59:14;11.48;;;6.32;;
75698;SDS011;64313;51.018;13.742;2023-02-23T14:01:44;11.48;;;5.75;;
75698;SDS011;64313;51.018;13.742;2023-02-23T14:04:24;11.73;;;6.15;;
75698;SDS011;64313;51.018;13.742;2023-02-23T14:06:58;12.93;;;6.72;;
75698;SDS011;64313;51.018;13.742;2023-02-23T14:09:32;11.77;;;6.30;;
75698;SDS011;64313;51.018;13.742;2023-02-23T14:22:26;11.57;;;5.65;;
75698;SDS011;64313;51.018;13.742;2023-02-23T14:25:42;10.57;;;5.30;;
75698;SDS011;64313;51.018;13.742;2023-02-23T14:28:01;9.88;;;5.15;;
75698;SDS011;64313;51.018;13.742;2023-02-23T14:30:49;10.32;;;5.40;;
75698;SDS011;64313;51.018;13.742;2023-02-23T14:36:40;9.60;;;5.38;;
75698;SDS011;64313;51.018;13.742;2023-02-23T14:38:59;9.65;;;5.32;;
75698;SDS011;64313;51.018;13.742;2023-02-23T14:41:49;12.38;;;6.95;;
75698;SDS011;64313;51.018;13.742;2023-02-23T14:44:20;9.55;;;5.68;;
75698;SDS011;64313;51.018;13.742;2023-02-23T14:49:41;14.05;;;6.82;;
75698;SDS011;64313;51.018;13.742;2023-02-23T14:52:31;10.27;;;5.50;;
75698;SDS011;64313;51.018;13.742;2023-02-23T14:55:18;11.00;;;6.22;;
75698;SDS011;64313;51.018;13.742;2023-02-23T14:57:51;10.82;;;5.88;;
75698;SDS011;64313;51.018;13.742;2023-02-23T15:00:25;12.38;;;6.22;;
75698;SDS011;64313;51.018;13.742;2023-02-23T15:02:54;11.88;;;6.70;;
75698;SDS011;64313;51.018;13.742;2023-02-23T15:07:51;12.88;;;6.80;;
75698;SDS011;64313;51.018;13.742;2023-02-23T15:10:29;13.25;;;7.13;;
75698;SDS011;64313;51.018;13.742;2023-02-23T15:13:00;14.50;;;7.38;;
75698;SDS011;64313;51.018;13.742;2023-02-23T15:15:33;13.55;;;7.32;;
75698;SDS011;64313;51.018;13.742;2023-02-23T15:18:00;14.32;;;7.97;;
75698;SDS011;64313;51.018;13.742;2023-02-23T15:20:31;13.70;;;7.13;;
75698;SDS011;64313;51.018;13.742;2023-02-23T15:22:59;12.13;;;7.47;;
75698;SDS011;64313;51.018;13.742;2023-02-23T15:55:17;18.05;;;9.70;;
75698;SDS011;64313;51.018;13.742;2023-02-23T15:57:58;16.55;;;9.10;;
75698;SDS011;64313;51.018;13.742;2023-02-23T16:00:37;16.58;;;9.20;;
75698;SDS011;64313;51.018;13.742;2023-02-23T16:03:06;16.77;;;9.63;;
75698;SDS011;64313;51.018;13.742;2023-02-23T16:05:33;15.32;;;9.52;;
75698;SDS011;64313;51.018;13.742;2023-02-23T16:08:04;15.65;;;8.35;;
75698;SDS011;64313;51.018;13.742;2023-02-23T16:11:06;17.30;;;9.68;;
75698;SDS011;64313;51.018;13.742;2023-02-23T16:13:36;15.70;;;8.85;;
75698;SDS011;64313;51.018;13.742;2023-02-23T16:16:11;16.45;;;8.52;;
75698;SDS011;64313;51.018;13.742;2023-02-23T16:18:44;15.20;;;8.50;;
75698;SDS011;64313;51.018;13.742;2023-02-23T16:23:46;16.02;;;8.65;;
75698;SDS011;64313;51.018;13.742;2023-02-23T16:26:17;15.20;;;8.98;;
75698;SDS011;64313;51.018;13.742;2023-02-23T16:28:50;17.02;;;9.15;;
75698;SDS011;64313;51.018;13.742;2023-02-23T16:31:24;14.57;;;8.82;;
75698;SDS011;64313;51.018;13.742;2023-02-23T16:34:16;16.88;;;9.23;;
75698;SDS011;64313;51.018;13.742;2023-02-23T16:36:59;17.77;;;9.93;;
75698;SDS011;64313;51.018;13.742;2023-02-23T16:39:28;17.45;;;9.52;;
75698;SDS011;64313;51.018;13.742;2023-02-23T16:41:58;18.75;;;10.50;;
75698;SDS011;64313;51.018;13.742;2023-02-23T16:44:27;22.45;;;12.15;;
75698;SDS011;64313;51.018;13.742;2023-02-23T16:49:26;22.23;;;11.65;;
75698;SDS011;64313;51.018;13.742;2023-02-23T16:51:55;21.15;;;11.55;;
75698;SDS011;64313;51.018;13.742;2023-02-23T16:54:22;21.50;;;12.23;;
75698;SDS011;64313;51.018;13.742;2023-02-23T16:56:48;21.30;;;12.32;;
75698;SDS011;64313;51.018;13.742;2023-02-23T16:59:15;20.00;;;11.80;;
75698;SDS011;64313;51.018;13.742;2023-02-23T17:01:42;19.25;;;11.43;;
75698;SDS011;64313;51.018;13.742;2023-02-23T17:04:13;20.73;;;11.75;;
75698;SDS011;64313;51.018;13.742;2023-02-23T17:06:43;21.52;;;12.52;;
75698;SDS011;64313;51.018;13.742;2023-02-23T17:09:09;20.02;;;11.32;;
75698;SDS011;64313;51.018;13.742;2023-02-23T17:11:36;21.70;;;12.23;;
75698;SDS011;64313;51.018;13.742;2023-02-23T17:14:02;20.77;;;12.13;;
75698;SDS011;64313;51.018;13.742;2023-02-23T17:16:28;22.65;;;12.20;;
75698;SDS011;64313;51.018;13.742;2023-02-23T17:18:53;20.00;;;11.95;;
75698;SDS011;64313;51.018;13.742;2023-02-23T17:21:19;21.83;;;11.45;;
75698;SDS011;64313;51.018;13.742;2023-02-23T17:23:48;20.23;;;11.68;;
75698;SDS011;64313;51.018;13.742;2023-02-23T17:26:15;19.52;;;10.90;;
75698;SDS011;64313;51.018;13.742;2023-02-23T17:28:55;20.90;;;11.85;;
75698;SDS011;64313;51.018;13.742;2023-02-23T17:31:21;19.30;;;10.75;;
75698;SDS011;64313;51.018;13.742;2023-02-23T17:33:46;20.40;;;11.00;;
75698;SDS011;64313;51.018;13.742;2023-02-23T17:36:13;21.50;;;11.38;;
75698;SDS011;64313;51.018;13.742;2023-02-23T17:38:40;17.90;;;11.07;;
75698;SDS011;64313;51.018;13.742;2023-02-23T17:41:08;19.13;;;10.43;;
75698;SDS011;64313;51.018;13.742;2023-02-23T17:43:40;19.13;;;10.70;;
75698;SDS011;64313;51.018;13.742;2023-02-23T17:46:06;21.10;;;11.57;;
75698;SDS011;64313;51.018;13.742;2023-02-23T17:48:31;18.52;;;11.55;;
75698;SDS011;64313;51.018;13.742;2023-02-23T17:51:04;21.02;;;11.90;;
75698;SDS011;64313;51.018;13.742;2023-02-23T17:53:34;21.08;;;11.35;;
75698;SDS011;64313;51.018;13.742;2023-02-23T17:56:00;20.17;;;11.35;;
75698;SDS011;64313;51.018;13.742;2023-02-23T17:58:25;21.27;;;11.23;;
75698;SDS011;64313;51.018;13.742;2023-02-23T18:00:55;19.77;;;12.63;;
75698;SDS011;64313;51.018;13.742;2023-02-23T18:03:21;20.70;;;12.32;;
75698;SDS011;64313;51.018;13.742;2023-02-23T18:05:48;20.25;;;11.73;;
75698;SDS011;64313;51.018;13.742;2023-02-23T18:08:22;19.55;;;11.35;;
75698;SDS011;64313;51.018;13.742;2023-02-23T18:11:08;21.17;;;12.45;;
75698;SDS011;64313;51.018;13.742;2023-02-23T18:13:33;20.58;;;12.20;;
75698;SDS011;64313;51.018;13.742;2023-02-23T18:16:06;21.70;;;13.18;;
75698;SDS011;64313;51.018;13.742;2023-02-23T18:18:33;19.20;;;12.40;;
75698;SDS011;64313;51.018;13.742;2023-02-23T18:21:08;20.42;;;12.40;;
75698;SDS011;64313;51.018;13.742;2023-02-23T18:23:35;20.33;;;11.50;;
75698;SDS011;64313;51.018;13.742;2023-02-23T18:26:04;21.15;;;12.35;;
75698;SDS011;64313;51.018;13.742;2023-02-23T18:28:32;21.95;;;13.32;;
75698;SDS011;64313;51.018;13.742;2023-02-23T18:30:58;24.88;;;14.52;;
75698;SDS011;64313;51.018;13.742;2023-02-23T18:33:24;28.45;;;16.25;;